Time;durP1;ratioP1;P1;durP2;ratioP2;P2;SDS_P1;SDS_P2;PMS_P1;PMS_P2;Temp;Humidity;BMP_temperature;BMP_pressure;BME280_temperature;BME280_humidity;BME280_pressure;Samples;Min_cycle;Max_cycle;Signal;HPM_P1;HPM_P2
2023/06/20 00:01:13;;;;;;;6.88;2.95;;;24.60;96.70;;;;;;4924661;29;20107;-70
2023/06/20 00:03:41;;;;;;;4.65;3.03;;;24.50;96.70;;;;;;4907877;29;20442;-70
2023/06/20 00:06:10;;;;;;;4.40;2.97;;;24.40;96.70;;;;;;4924762;29;20091;-70
2023/06/20 00:08:38;;;;;;;5.18;3.10;;;24.40;96.70;;;;;;4926250;29;20052;-70
2023/06/20 00:11:06;;;;;;;3.58;2.83;;;24.30;96.70;;;;;;4909057;29;20043;-70
2023/06/20 00:13:34;;;;;;;6.55;2.78;;;24.40;96.70;;;;;;4924603;29;20046;-70
2023/06/20 00:16:02;;;;;;;5.65;3.45;;;24.40;96.70;;;;;;4925870;29;20115;-70
2023/06/20 00:18:30;;;;;;;5.90;3.45;;;24.40;96.70;;;;;;4924100;29;20518;-70
2023/06/20 00:20:58;;;;;;;6.03;3.42;;;24.30;96.70;;;;;;4925431;29;20043;-70
2023/06/20 00:23:29;;;;;;;4.22;3.35;;;24.20;96.70;;;;;;4923068;29;20063;-70
2023/06/20 00:25:57;;;;;;;5.38;4.07;;;24.10;96.70;;;;;;4923880;29;20055;-70
2023/06/20 00:28:25;;;;;;;5.07;3.30;;;24.10;96.70;;;;;;4924490;29;20110;-70
2023/06/20 00:30:53;;;;;;;6.60;3.67;;;24.10;96.70;;;;;;4928231;29;20047;-70
2023/06/20 00:33:23;;;;;;;4.97;3.53;;;24.00;96.70;;;;;;4924156;29;20463;-70
2023/06/20 00:35:51;;;;;;;5.40;3.60;;;24.10;96.70;;;;;;4923664;29;20047;-70
2023/06/20 00:38:19;;;;;;;5.85;3.28;;;24.10;96.70;;;;;;4925347;29;20067;-70
2023/06/20 00:41:21;;;;;;;6.65;3.53;;;24.10;96.70;;;;;;4923115;29;20056;-70
2023/06/20 00:43:50;;;;;;;4.72;2.83;;;24.00;96.70;;;;;;4898878;29;20086;-71
2023/06/20 00:46:22;;;;;;;3.53;2.90;;;23.90;96.70;;;;;;4924234;29;20047;-70
2023/06/20 00:48:56;;;;;;;7.30;3.28;;;23.70;96.70;;;;;;4924519;29;20050;-71
2023/06/20 00:51:28;;;;;;;3.75;3.17;;;23.70;96.70;;;;;;4902855;29;20039;-70
2023/06/20 00:53:57;;;;;;;7.45;3.42;;;23.60;96.70;;;;;;4907422;29;20075;-70
2023/06/20 00:56:29;;;;;;;3.40;2.50;;;23.70;96.70;;;;;;4925192;29;20058;-71
2023/06/20 00:58:57;;;;;;;5.10;2.75;;;23.80;96.70;;;;;;4911455;29;20498;-70
2023/06/20 01:01:29;;;;;;;4.93;2.88;;;23.80;96.70;;;;;;4924394;29;20043;-71
2023/06/20 01:03:58;;;;;;;3.05;2.72;;;23.80;96.70;;;;;;4907958;29;20142;-71
2023/06/20 01:06:47;;;;;;;3.08;2.70;;;23.80;96.70;;;;;;4908333;29;20054;-71
2023/06/20 01:09:26;;;;;;;3.05;2.72;;;23.60;96.70;;;;;;4908301;29;20043;-71
2023/06/20 01:12:03;;;;;;;6.72;2.88;;;23.60;96.70;;;;;;4921302;29;20128;-71
2023/06/20 01:14:36;;;;;;;3.85;3.17;;;23.50;96.70;;;;;;4907486;29;20079;-71
2023/06/20 01:17:09;;;;;;;3.95;2.95;;;23.30;96.70;;;;;;4911417;29;20048;-71
2023/06/20 01:20:12;;;;;;;3.30;2.85;;;23.40;96.70;;;;;;4925355;29;20051;-71
2023/06/20 01:23:04;;;;;;;3.85;3.05;;;23.30;96.70;;;;;;4911382;29;20517;-71
2023/06/20 01:25:46;;;;;;;4.30;3.08;;;23.30;96.70;;;;;;4916548;29;20241;-71
2023/06/20 01:28:22;;;;;;;5.03;2.63;;;23.40;96.70;;;;;;4917956;29;20051;-71
2023/06/20 01:31:00;;;;;;;2.97;2.67;;;23.30;96.70;;;;;;4905603;29;20052;-70
2023/06/20 01:33:32;;;;;;;4.03;3.13;;;23.30;96.70;;;;;;4922259;29;20063;-71
2023/06/20 01:36:01;;;;;;;3.38;2.92;;;23.30;96.70;;;;;;4925224;29;20059;-71
2023/06/20 01:38:33;;;;;;;5.18;3.03;;;23.30;96.70;;;;;;4905149;29;20048;-70
2023/06/20 01:41:04;;;;;;;3.55;2.80;;;23.20;96.70;;;;;;4924508;29;20056;-71
2023/06/20 01:43:34;;;;;;;4.30;3.00;;;23.20;96.70;;;;;;4923288;29;20126;-71
2023/06/20 01:46:06;;;;;;;3.83;3.05;;;23.20;96.70;;;;;;4922331;29;20040;-70
2023/06/20 01:48:36;;;;;;;4.60;3.03;;;23.20;96.70;;;;;;4917732;29;20624;-70
2023/06/20 01:51:05;;;;;;;3.75;3.03;;;23.20;96.70;;;;;;4907694;29;20054;-70
2023/06/20 01:53:37;;;;;;;5.45;3.00;;;23.20;96.70;;;;;;4921855;29;20111;-71
2023/06/20 01:56:06;;;;;;;3.58;2.70;;;23.30;96.70;;;;;;4923709;29;20098;-70
2023/06/20 01:58:35;;;;;;;3.58;3.08;;;23.20;96.70;;;;;;4922914;29;20503;-71
2023/06/20 02:01:04;;;;;;;5.75;3.00;;;23.10;96.70;;;;;;4921610;29;20068;-71
2023/06/20 02:03:33;;;;;;;3.97;3.10;;;23.00;96.70;;;;;;4901069;29;20055;-71
2023/06/20 02:06:01;;;;;;;3.80;2.67;;;23.10;96.70;;;;;;4925233;29;20138;-71
2023/06/20 02:08:31;;;;;;;3.28;2.97;;;23.10;96.70;;;;;;4907850;29;20062;-71
2023/06/20 02:11:01;;;;;;;3.63;2.90;;;23.00;96.70;;;;;;4906920;29;20079;-71
2023/06/20 02:13:30;;;;;;;4.15;3.00;;;22.90;96.70;;;;;;4923209;29;20585;-70
2023/06/20 02:16:01;;;;;;;5.13;2.90;;;22.90;96.70;;;;;;4923285;29;20048;-71
2023/06/20 02:18:31;;;;;;;4.13;2.90;;;22.80;96.70;;;;;;4907589;29;20627;-72
2023/06/20 02:21:04;;;;;;;4.60;3.28;;;22.80;96.70;;;;;;4907131;29;20051;-71
2023/06/20 02:23:36;;;;;;;4.60;2.78;;;22.70;96.70;;;;;;4923664;29;20051;-71
2023/06/20 02:26:08;;;;;;;3.90;3.08;;;22.70;96.70;;;;;;4919264;29;20563;-72
2023/06/20 02:28:40;;;;;;;5.85;3.10;;;22.90;96.70;;;;;;4924721;29;20052;-72
2023/06/20 02:31:12;;;;;;;5.32;3.40;;;22.80;96.70;;;;;;4927462;29;20071;-71
2023/06/20 02:33:42;;;;;;;6.38;3.13;;;22.80;96.70;;;;;;4920578;29;20123;-72
2023/06/20 02:36:10;;;;;;;3.97;3.20;;;22.80;96.70;;;;;;4924551;29;20058;-72
2023/06/20 02:38:39;;;;;;;5.38;3.22;;;22.90;96.70;;;;;;4923973;29;20130;-71
2023/06/20 02:41:11;;;;;;;4.80;3.70;;;22.90;96.70;;;;;;4909903;29;20422;-72
2023/06/20 02:43:39;;;;;;;4.45;3.55;;;22.90;96.70;;;;;;4903305;29;20134;-71
2023/06/20 02:46:14;;;;;;;5.60;3.40;;;23.00;96.70;;;;;;4910834;29;20106;-70
2023/06/20 02:48:47;;;;;;;5.07;3.53;;;23.00;96.70;;;;;;4926478;29;20051;-70
2023/06/20 02:51:24;;;;;;;3.53;3.08;;;22.80;96.70;;;;;;4911051;29;20052;-70
2023/06/20 02:54:01;;;;;;;3.72;3.28;;;22.80;96.70;;;;;;4922515;29;20140;-71
2023/06/20 02:56:36;;;;;;;3.50;3.20;;;22.90;96.70;;;;;;4925444;29;20434;-71
2023/06/20 02:59:07;;;;;;;4.15;3.28;;;22.70;96.70;;;;;;4910141;29;20104;-70
2023/06/20 03:01:37;;;;;;;4.53;3.60;;;22.50;96.70;;;;;;4926509;29;20062;-70
2023/06/20 03:04:08;;;;;;;6.43;3.30;;;22.30;96.70;;;;;;4926172;29;20079;-70
2023/06/20 03:06:38;;;;;;;3.72;3.35;;;22.30;96.70;;;;;;4927451;29;20086;-71
2023/06/20 03:09:06;;;;;;;4.55;3.38;;;22.30;96.70;;;;;;4927239;29;20052;-70
2023/06/20 03:11:36;;;;;;;4.18;3.42;;;22.30;96.70;;;;;;4927676;29;20110;-71
2023/06/20 03:14:05;;;;;;;4.88;3.45;;;22.30;96.70;;;;;;4920046;29;20550;-71
2023/06/20 03:16:34;;;;;;;5.00;3.90;;;22.30;96.70;;;;;;4895098;29;20138;-70
2023/06/20 03:19:03;;;;;;;5.80;3.50;;;22.30;96.70;;;;;;4924760;29;20070;-70
2023/06/20 03:21:32;;;;;;;6.07;3.67;;;22.40;96.70;;;;;;4909131;29;20036;-70
2023/06/20 03:24:03;;;;;;;4.35;3.40;;;22.40;96.70;;;;;;4905882;29;20058;-70
2023/06/20 03:26:33;;;;;;;4.10;3.70;;;22.40;96.70;;;;;;4905477;29;20066;-71
2023/06/20 03:29:03;;;;;;;4.95;3.67;;;22.40;96.70;;;;;;4910461;29;20074;-71
2023/06/20 03:31:31;;;;;;;6.47;3.47;;;22.40;96.70;;;;;;4922521;29;20062;-70
2023/06/20 03:34:00;;;;;;;3.88;3.15;;;22.30;96.70;;;;;;4920062;29;20044;-70
2023/06/20 03:36:29;;;;;;;5.70;3.40;;;22.20;96.70;;;;;;4907619;29;20720;-70
2023/06/20 03:38:58;;;;;;;6.30;3.42;;;22.10;96.70;;;;;;4921367;29;20071;-71
2023/06/20 03:41:27;;;;;;;4.95;3.10;;;22.10;96.70;;;;;;4924650;29;20600;-70
2023/06/20 03:43:59;;;;;;;3.85;3.08;;;22.20;96.70;;;;;;4925597;29;20500;-70
2023/06/20 03:46:29;;;;;;;5.03;3.45;;;22.10;96.70;;;;;;4925073;29;20058;-71
2023/06/20 03:48:57;;;;;;;6.63;3.10;;;22.00;96.70;;;;;;4925847;29;20094;-70
2023/06/20 03:51:25;;;;;;;3.65;2.88;;;22.10;96.70;;;;;;4909364;29;20043;-70
2023/06/20 03:53:54;;;;;;;6.63;3.40;;;22.10;96.70;;;;;;4923177;29;20162;-72
2023/06/20 03:56:23;;;;;;;5.78;3.50;;;22.10;96.70;;;;;;4925572;29;20154;-71
2023/06/20 03:58:51;;;;;;;4.40;2.90;;;22.10;96.70;;;;;;4922594;29;20396;-71
2023/06/20 04:01:19;;;;;;;3.20;2.90;;;21.90;96.70;;;;;;4925210;29;20044;-71
2023/06/20 04:03:48;;;;;;;3.38;3.08;;;22.00;96.70;;;;;;4927368;29;20060;-71
2023/06/20 04:06:17;;;;;;;6.60;3.20;;;22.00;96.70;;;;;;4909533;29;20410;-71
2023/06/20 04:08:45;;;;;;;4.05;3.10;;;22.10;96.70;;;;;;4909673;29;20447;-71
2023/06/20 04:11:13;;;;;;;3.60;2.95;;;22.10;96.70;;;;;;4925049;29;20047;-70
2023/06/20 04:13:41;;;;;;;4.30;3.40;;;22.10;96.70;;;;;;4913886;29;20036;-71
2023/06/20 04:16:10;;;;;;;5.57;3.38;;;22.10;96.70;;;;;;4924050;29;20095;-71
2023/06/20 04:18:38;;;;;;;6.95;3.65;;;22.10;96.70;;;;;;4923615;29;20056;-70
2023/06/20 04:21:07;;;;;;;4.97;3.40;;;22.00;96.70;;;;;;4923459;29;20051;-69
2023/06/20 04:23:35;;;;;;;10.77;3.88;;;22.00;96.70;;;;;;4922989;29;20044;-70
2023/06/20 04:26:06;;;;;;;6.78;3.53;;;22.00;96.70;;;;;;4927947;29;20047;-70
2023/06/20 04:28:34;;;;;;;5.03;3.08;;;22.10;96.70;;;;;;4923482;29;20054;-70
2023/06/20 04:31:03;;;;;;;6.13;3.47;;;22.10;96.70;;;;;;4922788;29;20503;-70
2023/06/20 04:33:31;;;;;;;3.95;3.33;;;22.10;96.70;;;;;;4907197;29;20059;-70
2023/06/20 04:35:59;;;;;;;7.40;3.42;;;22.00;96.70;;;;;;4925434;29;20052;-69
2023/06/20 04:38:33;;;;;;;8.77;3.35;;;22.00;96.70;;;;;;4922813;29;20043;-70
2023/06/20 04:41:02;;;;;;;4.80;3.25;;;22.00;96.70;;;;;;4900646;29;20494;-70
2023/06/20 04:43:30;;;;;;;5.15;3.75;;;22.10;96.70;;;;;;4921846;29;20047;-70
2023/06/20 04:45:58;;;;;;;3.97;3.30;;;22.10;96.70;;;;;;4908209;29;20071;-70
2023/06/20 04:48:28;;;;;;;4.22;3.35;;;22.00;96.70;;;;;;4908768;29;20047;-70
2023/06/20 04:50:58;;;;;;;6.70;3.50;;;22.20;96.70;;;;;;4926082;29;20051;-70
2023/06/20 04:53:26;;;;;;;6.25;3.05;;;22.20;96.70;;;;;;4922735;29;20230;-70
2023/06/20 04:55:58;;;;;;;4.38;3.63;;;22.20;96.70;;;;;;4924481;29;20057;-70
2023/06/20 04:58:28;;;;;;;8.00;4.20;;;22.20;96.70;;;;;;4922289;29;20056;-70
2023/06/20 05:00:56;;;;;;;5.70;3.47;;;22.10;96.70;;;;;;4903155;29;20451;-70
2023/06/20 05:03:25;;;;;;;7.78;3.60;;;22.10;96.70;;;;;;4923813;29;20058;-70
2023/06/20 05:05:53;;;;;;;7.13;3.03;;;22.20;96.70;;;;;;4907514;29;20131;-70
2023/06/20 05:08:22;;;;;;;5.07;3.80;;;22.30;96.70;;;;;;4916047;29;20056;-70
2023/06/20 05:10:50;;;;;;;4.93;3.63;;;22.30;96.70;;;;;;4907582;29;20045;-70
2023/06/20 05:13:19;;;;;;;7.28;3.42;;;22.30;96.70;;;;;;4923209;29;20130;-70
2023/06/20 05:15:47;;;;;;;6.57;3.80;;;22.20;96.70;;;;;;4922774;29;20127;-70
2023/06/20 05:18:16;;;;;;;6.00;3.05;;;22.20;96.70;;;;;;4925166;29;20151;-70
2023/06/20 05:20:44;;;;;;;5.13;3.60;;;22.20;96.70;;;;;;4919865;29;20043;-70
2023/06/20 05:23:16;;;;;;;3.88;3.30;;;22.20;96.70;;;;;;4922547;29;21127;-70
2023/06/20 05:25:56;;;;;;;6.03;4.03;;;22.30;96.70;;;;;;4921835;29;20064;-70
2023/06/20 05:28:25;;;;;;;7.82;4.20;;;22.40;96.70;;;;;;4919179;29;20047;-70
2023/06/20 05:30:54;;;;;;;6.35;3.97;;;22.40;96.70;;;;;;4920497;29;20048;-69
2023/06/20 05:33:22;;;;;;;5.55;4.38;;;22.50;96.70;;;;;;4922866;29;20048;-69
2023/06/20 05:35:50;;;;;;;5.85;5.18;;;22.60;96.70;;;;;;4919810;29;20134;-69
2023/06/20 05:38:37;;;;;;;6.78;5.60;;;22.50;96.70;;;;;;4892962;29;20075;-68
2023/06/20 05:41:05;;;;;;;;;;;22.50;96.70;;;;;;4922520;29;20143;-69
2023/06/20 05:43:35;;;;;;;9.63;6.65;;;22.60;96.70;;;;;;4922021;29;19927;-70
2023/06/20 05:46:03;;;;;;;7.72;6.47;;;22.70;96.70;;;;;;4925280;29;20052;-70
2023/06/20 05:48:32;;;;;;;10.02;7.10;;;22.70;96.70;;;;;;4923910;29;20055;-70
2023/06/20 05:51:03;;;;;;;11.93;6.82;;;22.80;96.70;;;;;;4920198;29;20052;-70
2023/06/20 05:53:32;;;;;;;8.38;7.18;;;22.80;96.70;;;;;;4924087;29;20043;-70
2023/06/20 05:56:01;;;;;;;9.35;7.53;;;22.90;96.70;;;;;;4922247;29;20040;-69
2023/06/20 05:58:30;;;;;;;8.80;6.72;;;23.00;96.70;;;;;;4923647;29;20055;-70
2023/06/20 06:01:01;;;;;;;11.65;7.90;;;23.10;96.70;;;;;;4911440;29;20075;-70
2023/06/20 06:03:32;;;;;;;8.77;6.78;;;23.10;96.70;;;;;;4922989;29;20430;-69
2023/06/20 06:06:02;;;;;;;7.40;6.55;;;23.20;96.70;;;;;;4924861;29;20062;-70
2023/06/20 06:08:30;;;;;;;8.07;6.57;;;23.30;96.70;;;;;;4921603;29;20411;-70
2023/06/20 06:10:58;;;;;;;8.85;6.28;;;23.40;96.70;;;;;;4908084;29;20482;-70
2023/06/20 06:13:27;;;;;;;8.82;6.20;;;23.50;96.70;;;;;;4911058;29;20466;-70
2023/06/20 06:15:55;;;;;;;7.72;5.63;;;23.50;96.70;;;;;;4927524;29;20635;-69
2023/06/20 06:18:30;;;;;;;6.00;5.25;;;23.60;96.70;;;;;;4927958;29;20059;-70
2023/06/20 06:20:58;;;;;;;8.35;5.75;;;23.70;96.70;;;;;;4928543;28;20051;-70
2023/06/20 06:23:27;;;;;;;6.60;5.43;;;23.80;96.70;;;;;;4930639;29;20490;-70
2023/06/20 06:25:55;;;;;;;8.95;5.78;;;23.90;96.70;;;;;;4907830;29;20052;-69
2023/06/20 06:28:24;;;;;;;10.40;6.22;;;24.00;96.70;;;;;;4924989;29;20040;-69
2023/06/20 06:30:53;;;;;;;7.55;6.03;;;24.00;96.70;;;;;;4927083;29;20063;-69
2023/06/20 06:33:23;;;;;;;9.93;7.07;;;23.90;96.70;;;;;;4924307;29;20047;-70
2023/06/20 06:35:55;;;;;;;9.25;6.85;;;24.00;96.70;;;;;;4920285;29;20048;-70
2023/06/20 06:38:23;;;;;;;9.40;7.28;;;24.00;96.70;;;;;;4923718;29;20131;-70
2023/06/20 06:40:54;;;;;;;9.93;7.47;;;24.10;96.70;;;;;;4922752;29;20091;-70
2023/06/20 06:43:23;;;;;;;12.27;7.93;;;24.10;96.70;;;;;;4908734;29;20132;-70
2023/06/20 06:45:51;;;;;;;11.43;8.27;;;24.20;96.70;;;;;;4914562;29;20044;-70
2023/06/20 06:48:19;;;;;;;12.68;9.45;;;24.30;96.70;;;;;;4919825;29;20636;-71
2023/06/20 06:50:47;;;;;;;12.05;8.57;;;24.30;96.70;;;;;;4923829;29;20540;-73
2023/06/20 06:53:19;;;;;;;12.02;8.38;;;24.30;96.70;;;;;;4932240;29;20119;-74
2023/06/20 06:55:47;;;;;;;12.80;8.38;;;24.40;96.70;;;;;;4927308;29;20058;-69
2023/06/20 06:58:15;;;;;;;12.48;9.20;;;24.40;96.70;;;;;;4923133;29;20056;-73
2023/06/20 07:00:44;;;;;;;11.27;8.82;;;24.50;96.70;;;;;;4927222;29;20062;-73
2023/06/20 07:03:12;;;;;;;12.88;9.90;;;24.50;96.70;;;;;;4927142;29;20048;-73
2023/06/20 07:05:40;;;;;;;13.48;8.55;;;24.60;96.70;;;;;;4927879;29;20187;-73
2023/06/20 07:08:08;;;;;;;12.32;8.75;;;24.70;96.70;;;;;;4910681;29;20090;-74
2023/06/20 07:10:39;;;;;;;11.48;8.00;;;24.70;96.70;;;;;;4909668;29;20063;-72
2023/06/20 07:13:08;;;;;;;9.70;6.82;;;24.80;96.70;;;;;;4925965;29;21221;-71
2023/06/20 07:15:36;;;;;;;9.30;6.30;;;24.90;96.70;;;;;;4927370;29;20103;-71
2023/06/20 07:18:07;;;;;;;8.23;5.90;;;25.00;96.70;;;;;;4919738;29;20051;-71
2023/06/20 07:20:36;;;;;;;10.07;6.40;;;25.00;96.70;;;;;;4909197;29;20147;-71
2023/06/20 07:23:04;;;;;;;6.32;4.53;;;25.00;96.70;;;;;;4927072;29;20457;-71
2023/06/20 07:25:32;;;;;;;7.38;5.43;;;25.00;96.70;;;;;;4906642;29;20402;-71
2023/06/20 07:28:02;;;;;;;9.20;5.40;;;25.20;96.70;;;;;;4910257;29;20460;-71
2023/06/20 07:30:31;;;;;;;10.63;5.50;;;25.20;96.70;;;;;;4923815;29;20055;-71
2023/06/20 07:32:59;;;;;;;8.65;5.35;;;25.30;96.70;;;;;;4922924;29;20095;-71
2023/06/20 07:35:28;;;;;;;7.18;4.30;;;25.30;96.70;;;;;;4909139;29;20044;-71
2023/06/20 07:37:56;;;;;;;6.25;4.72;;;25.40;96.70;;;;;;4925686;29;20072;-75
2023/06/20 07:40:25;;;;;;;6.53;5.00;;;25.50;96.70;;;;;;4923904;29;20048;-71
2023/06/20 07:42:54;;;;;;;6.85;4.93;;;25.50;96.70;;;;;;4925679;29;20047;-71
2023/06/20 07:45:25;;;;;;;7.78;5.47;;;25.60;96.70;;;;;;4924949;29;20613;-72
2023/06/20 07:47:54;;;;;;;9.05;6.38;;;25.60;96.70;;;;;;4931217;29;20541;-72
2023/06/20 07:50:23;;;;;;;8.63;7.38;;;25.70;96.70;;;;;;4908116;29;20044;-73
2023/06/20 07:52:51;;;;;;;13.05;9.23;;;25.70;96.70;;;;;;4922918;29;20047;-71
2023/06/20 07:55:20;;;;;;;13.40;9.52;;;25.80;96.70;;;;;;4930052;29;20059;-70
2023/06/20 07:57:57;;;;;;;11.38;9.05;;;25.80;96.70;;;;;;4925901;29;20058;-71
2023/06/20 08:00:28;;;;;;;14.10;9.65;;;25.80;96.70;;;;;;4924516;29;20123;-75
2023/06/20 08:02:57;;;;;;;12.63;9.57;;;25.90;96.70;;;;;;4928570;29;20586;-71
2023/06/20 08:05:26;;;;;;;11.45;8.60;;;26.00;96.70;;;;;;4927290;28;20122;-71
2023/06/20 08:07:55;;;;;;;9.35;6.45;;;26.00;96.70;;;;;;4933563;29;20110;-71
2023/06/20 08:10:23;;;;;;;12.23;7.13;;;26.10;96.70;;;;;;4926242;29;20042;-71
2023/06/20 08:12:52;;;;;;;11.50;7.32;;;26.20;96.70;;;;;;4926279;29;20071;-71
2023/06/20 08:15:21;;;;;;;8.57;6.22;;;26.20;96.70;;;;;;4923199;29;20043;-71
2023/06/20 08:17:51;;;;;;;8.02;6.38;;;26.30;96.70;;;;;;4907343;29;20051;-71
2023/06/20 08:20:20;;;;;;;7.88;6.50;;;26.30;96.70;;;;;;4925623;29;20569;-71
2023/06/20 08:22:48;;;;;;;8.80;5.45;;;26.40;96.70;;;;;;4921693;29;20036;-71
2023/06/20 08:25:17;;;;;;;7.22;5.13;;;26.50;96.70;;;;;;4924983;29;20044;-71
2023/06/20 08:27:45;;;;;;;8.20;4.93;;;26.60;96.70;;;;;;4923594;29;20059;-71
2023/06/20 08:30:15;;;;;;;6.43;4.75;;;26.70;96.70;;;;;;4908324;29;20198;-71
2023/06/20 08:32:44;;;;;;;5.63;4.47;;;26.80;96.70;;;;;;4901199;29;20315;-71
2023/06/20 08:35:14;;;;;;;5.47;4.38;;;26.80;96.70;;;;;;4924440;29;20044;-71
2023/06/20 08:37:42;;;;;;;5.85;3.88;;;26.90;96.70;;;;;;4925976;29;20075;-71
2023/06/20 08:40:13;;;;;;;6.30;4.50;;;27.00;96.70;;;;;;4925741;29;20641;-71
2023/06/20 08:42:43;;;;;;;4.15;3.63;;;27.00;96.70;;;;;;4927243;29;20043;-76
2023/06/20 08:45:14;;;;;;;7.10;4.38;;;27.10;96.70;;;;;;4924026;29;20063;-74
2023/06/20 08:47:45;;;;;;;5.35;4.35;;;27.10;96.70;;;;;;4925292;29;20040;-72
2023/06/20 08:50:16;;;;;;;5.55;4.22;;;27.20;96.70;;;;;;4925836;29;20463;-71
2023/06/20 08:52:49;;;;;;;6.30;3.53;;;27.30;96.70;;;;;;4924618;29;20470;-71
2023/06/20 08:55:18;;;;;;;6.10;3.75;;;27.40;96.70;;;;;;4924184;29;20135;-71
2023/06/20 08:57:48;;;;;;;4.53;3.95;;;27.50;96.70;;;;;;4922410;29;20197;-71
2023/06/20 09:00:17;;;;;;;7.53;4.32;;;27.50;96.70;;;;;;4925566;29;20072;-73
2023/06/20 09:02:45;;;;;;;5.18;3.63;;;27.50;96.70;;;;;;4927407;29;20039;-71
2023/06/20 09:05:16;;;;;;;4.93;3.30;;;27.40;96.70;;;;;;4924577;28;20127;-70
2023/06/20 09:07:45;;;;;;;5.78;4.10;;;27.40;96.70;;;;;;4921816;29;20126;-70
2023/06/20 09:10:21;;;;;;;4.03;3.53;;;27.50;96.70;;;;;;4923825;29;20054;-69
2023/06/20 09:12:51;;;;;;;6.18;3.35;;;27.60;96.70;;;;;;4921469;29;20044;-70
2023/06/20 09:15:21;;;;;;;4.45;3.38;;;27.80;96.70;;;;;;4927592;29;20050;-71
2023/06/20 09:17:51;;;;;;;4.18;3.63;;;28.00;96.70;;;;;;4927677;29;20051;-70
2023/06/20 09:20:24;;;;;;;4.38;3.92;;;28.00;96.70;;;;;;4928945;28;20048;-70
2023/06/20 09:22:53;;;;;;;4.13;3.53;;;28.20;96.70;;;;;;4929049;29;20051;-70
2023/06/20 09:25:22;;;;;;;5.57;3.15;;;28.20;96.70;;;;;;4922866;29;20158;-70
2023/06/20 09:27:52;;;;;;;4.13;3.22;;;28.40;96.70;;;;;;4926280;29;20055;-70
2023/06/20 09:30:20;;;;;;;6.47;3.20;;;28.40;96.70;;;;;;4923474;29;20312;-72
2023/06/20 09:32:53;;;;;;;5.05;3.60;;;28.50;96.70;;;;;;4914747;29;20054;-70
2023/06/20 09:35:23;;;;;;;5.20;3.80;;;28.60;96.70;;;;;;4916778;29;20048;-71
2023/06/20 09:37:53;;;;;;;4.10;3.28;;;28.60;96.70;;;;;;4923458;29;20058;-71
2023/06/20 09:40:21;;;;;;;7.28;3.63;;;28.70;96.70;;;;;;4924158;29;20345;-70
2023/06/20 09:42:56;;;;;;;4.10;3.42;;;28.80;96.70;;;;;;4924542;29;20075;-71
2023/06/20 09:45:25;;;;;;;5.40;3.20;;;28.90;96.70;;;;;;4923526;29;20053;-71
2023/06/20 09:47:56;;;;;;;3.78;3.25;;;28.90;96.70;;;;;;4924212;29;20051;-71
2023/06/20 09:50:28;;;;;;;6.60;3.22;;;29.00;96.70;;;;;;4924443;29;20051;-71
2023/06/20 09:53:03;;;;;;;5.53;3.95;;;29.10;96.70;;;;;;4923254;29;20707;-71
2023/06/20 09:55:35;;;;;;;4.72;3.90;;;29.30;96.70;;;;;;4923196;29;20479;-70
2023/06/20 09:58:07;;;;;;;4.15;3.75;;;29.30;96.70;;;;;;4897634;29;20052;-70
2023/06/20 10:00:37;;;;;;;4.90;3.28;;;29.20;96.70;;;;;;4919436;29;20086;-71
2023/06/20 10:03:09;;;;;;;7.50;3.13;;;29.40;96.70;;;;;;4913469;29;20094;-71
2023/06/20 10:05:40;;;;;;;4.13;2.97;;;29.50;96.70;;;;;;4923660;29;20051;-71
2023/06/20 10:08:09;;;;;;;5.15;3.03;;;29.70;96.70;;;;;;4924511;29;20051;-71
2023/06/20 10:10:37;;;;;;;4.47;3.40;;;29.80;96.70;;;;;;4923105;29;20059;-71
2023/06/20 10:13:06;;;;;;;5.57;3.58;;;29.80;96.70;;;;;;4924721;29;20046;-71
2023/06/20 10:15:35;;;;;;;4.97;2.97;;;29.80;96.70;;;;;;4920265;29;20403;-71
2023/06/20 10:18:17;;;;;;;5.38;2.95;;;29.90;96.70;;;;;;4922606;29;20050;-71
2023/06/20 10:20:47;;;;;;;5.15;3.28;;;30.00;96.70;;;;;;4915646;29;20134;-72
2023/06/20 10:23:16;;;;;;;4.72;3.70;;;29.90;96.70;;;;;;4907566;29;20055;-71
2023/06/20 10:25:57;;;;;;;3.60;3.30;;;29.90;96.70;;;;;;4924155;29;20067;-71
2023/06/20 10:28:26;;;;;;;4.18;3.15;;;30.00;96.70;;;;;;4906555;29;20464;-70
2023/06/20 10:30:57;;;;;;;4.50;3.30;;;30.20;96.70;;;;;;4914567;29;20390;-71
2023/06/20 10:33:27;;;;;;;3.42;3.10;;;30.20;96.70;;;;;;4923307;29;20094;-71
2023/06/20 10:35:59;;;;;;;3.90;3.30;;;30.40;96.70;;;;;;4921740;29;20047;-71
2023/06/20 10:38:28;;;;;;;5.97;2.50;;;30.50;96.70;;;;;;4924854;29;20044;-70
2023/06/20 10:41:10;;;;;;;3.03;2.70;;;30.70;96.70;;;;;;4923495;29;20093;-70
2023/06/20 10:43:50;;;;;;;6.40;3.17;;;30.70;96.70;;;;;;4924568;29;20074;-71
2023/06/20 10:46:19;;;;;;;3.70;2.75;;;30.80;96.70;;;;;;4918038;29;20051;-71
2023/06/20 10:48:48;;;;;;;2.88;2.50;;;30.80;96.70;;;;;;4919122;29;20138;-70
2023/06/20 10:51:18;;;;;;;4.85;2.58;;;31.00;96.70;;;;;;4928351;29;20164;-71
2023/06/20 10:53:46;;;;;;;4.13;2.20;;;31.10;96.70;;;;;;4927782;29;20059;-70
2023/06/20 10:56:26;;;;;;;4.22;2.60;;;31.10;96.70;;;;;;4926317;29;20047;-70
2023/06/20 10:58:54;;;;;;;4.10;2.17;;;31.10;96.70;;;;;;4926475;29;20066;-70
2023/06/20 11:01:27;;;;;;;3.50;2.80;;;31.30;96.70;;;;;;4926801;29;20473;-70
2023/06/20 11:03:56;;;;;;;3.85;2.53;;;31.60;96.70;;;;;;4927119;29;20470;-70
2023/06/20 11:06:29;;;;;;;5.05;2.83;;;31.80;96.70;;;;;;4925856;29;20470;-71
2023/06/20 11:08:58;;;;;;;2.88;2.40;;;31.90;96.70;;;;;;4910260;29;20653;-71
2023/06/20 11:11:34;;;;;;;5.07;2.75;;;31.90;96.70;;;;;;4926273;29;20177;-71
2023/06/20 11:14:12;;;;;;;3.83;2.95;;;31.70;96.70;;;;;;4927788;29;20062;-71
2023/06/20 11:16:41;;;;;;;3.50;2.80;;;31.90;96.70;;;;;;4926229;29;20059;-70
2023/06/20 11:19:09;;;;;;;3.45;2.72;;;32.20;96.70;;;;;;4925539;29;20051;-71
2023/06/20 11:21:59;;;;;;;4.85;2.65;;;32.10;96.70;;;;;;4921102;29;20442;-71
2023/06/20 11:24:30;;;;;;;3.30;2.40;;;31.80;96.70;;;;;;4927180;29;20146;-70
2023/06/20 11:27:11;;;;;;;5.10;2.47;;;32.00;96.70;;;;;;4927732;29;20525;-71
2023/06/20 11:29:39;;;;;;;4.47;2.50;;;32.30;96.70;;;;;;4908902;29;20052;-71
2023/06/20 11:32:08;;;;;;;5.57;2.90;;;32.50;96.70;;;;;;4916960;29;20265;-71
2023/06/20 11:34:53;;;;;;;3.78;2.80;;;32.40;96.70;;;;;;4927499;29;20043;-70
2023/06/20 11:37:22;;;;;;;3.47;2.40;;;32.30;96.70;;;;;;4913494;29;20059;-70
2023/06/20 11:39:51;;;;;;;2.80;2.60;;;32.30;96.70;;;;;;4924950;29;20581;-70
2023/06/20 11:42:19;;;;;;;2.60;2.40;;;32.40;96.70;;;;;;4918744;29;20514;-71
2023/06/20 11:44:47;;;;;;;4.43;2.72;;;32.50;96.70;;;;;;4925623;29;20055;-70
2023/06/20 11:47:16;;;;;;;4.25;2.60;;;32.50;96.70;;;;;;4909906;29;20458;-71
2023/06/20 11:49:44;;;;;;;6.38;2.95;;;32.50;96.70;;;;;;4910092;29;20052;-69
2023/06/20 11:52:12;;;;;;;3.10;2.40;;;32.40;96.70;;;;;;4926776;29;20067;-72
2023/06/20 11:54:49;;;;;;;3.65;2.50;;;32.50;96.70;;;;;;4908940;29;20051;-72
2023/06/20 11:57:25;;;;;;;4.18;2.80;;;32.60;96.70;;;;;;4926831;29;20055;-72
2023/06/20 11:59:54;;;;;;;3.65;2.60;;;32.70;96.70;;;;;;4926625;29;20048;-72
2023/06/20 12:02:25;;;;;;;3.33;2.53;;;32.80;96.70;;;;;;4930593;29;20075;-72
2023/06/20 12:04:57;;;;;;;2.58;2.38;;;33.00;96.70;;;;;;4924999;29;20044;-72
2023/06/20 12:07:25;;;;;;;2.72;2.53;;;33.10;96.70;;;;;;4927054;29;20491;-73
2023/06/20 12:09:54;;;;;;;3.85;3.00;;;33.20;96.70;;;;;;4926017;29;20078;-72
2023/06/20 12:12:30;;;;;;;3.83;2.58;;;33.10;96.70;;;;;;4926309;29;20051;-72
2023/06/20 12:15:00;;;;;;;4.70;3.15;;;33.20;96.70;;;;;;4923985;29;20048;-72
2023/06/20 12:17:28;;;;;;;3.35;2.92;;;33.20;96.70;;;;;;4918539;29;20047;-72
2023/06/20 12:19:57;;;;;;;3.42;3.13;;;33.10;96.70;;;;;;4909981;29;20158;-72
2023/06/20 12:22:25;;;;;;;3.17;2.80;;;33.20;96.70;;;;;;4926685;29;20051;-72
2023/06/20 12:24:54;;;;;;;3.10;2.80;;;33.20;96.70;;;;;;4926207;29;20146;-72
2023/06/20 12:27:23;;;;;;;2.67;2.47;;;33.20;96.70;;;;;;4924811;29;20111;-72
2023/06/20 12:29:51;;;;;;;3.22;2.90;;;33.40;96.70;;;;;;4908696;29;20588;-71
2023/06/20 12:32:19;;;;;;;3.63;3.28;;;33.40;96.70;;;;;;4926522;29;20047;-73
2023/06/20 12:34:47;;;;;;;3.75;2.78;;;33.40;96.70;;;;;;4908858;29;20066;-72
2023/06/20 12:37:17;;;;;;;3.53;3.10;;;33.50;96.70;;;;;;4926509;29;20163;-71
2023/06/20 12:39:45;;;;;;;3.67;2.65;;;33.50;96.70;;;;;;4925064;29;20090;-71
2023/06/20 12:42:18;;;;;;;3.33;2.88;;;33.40;96.70;;;;;;4925000;29;20114;-71
2023/06/20 12:44:46;;;;;;;3.95;2.67;;;33.60;96.70;;;;;;4924542;29;20171;-71
2023/06/20 12:47:14;;;;;;;3.60;3.30;;;33.70;96.70;;;;;;4925081;29;20063;-71
2023/06/20 12:49:43;;;;;;;3.80;2.85;;;33.70;96.70;;;;;;4925841;29;20058;-71
2023/06/20 12:52:12;;;;;;;5.70;3.22;;;33.80;96.70;;;;;;4908659;29;20075;-71
2023/06/20 12:54:40;;;;;;;2.85;2.65;;;33.70;96.70;;;;;;4924805;29;20052;-69
2023/06/20 12:57:09;;;;;;;3.40;2.75;;;33.70;96.70;;;;;;4924248;29;20438;-69
2023/06/20 12:59:40;;;;;;;3.45;2.83;;;33.80;96.70;;;;;;4925560;29;20047;-68
2023/06/20 13:02:08;;;;;;;4.72;3.38;;;34.00;96.70;;;;;;4930021;29;20087;-69